Time;durP1;ratioP1;P1;durP2;ratioP2;P2;SDS_P1;SDS_P2;PMS_P1;PMS_P2;Temp;Humidity;BMP_temperature;BMP_pressure;BME280_temperature;BME280_humidity;BME280_pressure;Samples;Min_cycle;Max_cycle;Signal;HPM_P1;HPM_P2
2024/03/13 00:01:33;;;;;;;10.80;7.90;;;;;;;0.74;100.00;100383.49;106019;1256;60557;-56
2024/03/13 00:04:00;;;;;;;15.80;7.30;;;;;;;0.75;100.00;100390.23;105931;1256;73927;-58
2024/03/13 00:06:28;;;;;;;9.10;6.90;;;;;;;0.78;100.00;100387.36;105987;1260;67761;-58
2024/03/13 00:08:55;;;;;;;13.50;7.00;;;;;;;0.81;100.00;100387.56;105973;1259;72802;-58
2024/03/13 00:11:26;;;;;;;11.20;7.80;;;;;;;0.83;100.00;100386.34;105982;1257;60610;-57
2024/03/13 00:13:55;;;;;;;11.40;7.40;;;;;;;0.81;100.00;100382.79;106041;1260;60532;-57
2024/03/13 00:16:22;;;;;;;10.60;6.90;;;;;;;0.78;100.00;100387.02;105990;1260;72129;-58
2024/03/13 00:18:51;;;;;;;16.50;8.50;;;;;;;0.75;100.00;100386.68;106188;1256;64810;-56
2024/03/13 00:21:19;;;;;;;12.30;7.60;;;;;;;0.71;100.00;100383.84;106039;1255;71294;-55
2024/03/13 00:23:46;;;;;;;11.10;8.30;;;;;;;0.67;100.00;100385.09;105962;1265;60440;-57
2024/03/13 00:26:13;;;;;;;12.20;6.80;;;;;;;0.64;100.00;100386.84;105897;1256;60914;-57
2024/03/13 00:28:40;;;;;;;13.60;6.80;;;;;;;0.63;100.00;100387.54;105976;1255;72827;-57
2024/03/13 00:31:08;;;;;;;11.30;7.40;;;;;;;0.63;100.00;100388.59;106047;1254;67475;-57
2024/03/13 00:33:38;;;;;;;10.50;7.20;;;;;;;0.63;100.00;100388.95;106058;1258;71482;-57
2024/03/13 00:36:07;;;;;;;9.90;7.40;;;;;;;0.64;100.00;100383.30;105947;1258;60653;-56
2024/03/13 00:38:34;;;;;;;14.00;7.50;;;;;;;0.65;100.00;100381.90;105963;1259;61450;-57
2024/03/13 00:41:02;;;;;;;14.00;7.50;;;;;;;0.66;100.00;100379.08;105998;1263;73928;-56
2024/03/13 00:43:32;;;;;;;8.80;6.10;;;;;;;0.68;100.00;100379.77;106055;1269;65837;-58
2024/03/13 00:46:00;;;;;;;12.90;7.30;;;;;;;0.70;100.00;100382.06;105915;1259;71011;-56
2024/03/13 00:48:31;;;;;;;12.90;6.80;;;;;;;0.70;100.00;100381.36;105946;1255;60448;-57
2024/03/13 00:51:02;;;;;;;10.10;6.60;;;;;;;0.69;100.00;100371.82;106154;1261;61042;-56
2024/03/13 00:53:29;;;;;;;12.90;7.80;;;;;;;0.68;100.00;100372.17;105953;1256;72738;-58
2024/03/13 00:55:58;;;;;;;15.40;8.40;;;;;;;0.65;100.00;100367.77;108824;1256;67256;-61
2024/03/13 00:58:26;;;;;;;16.00;9.40;;;;;;;0.63;100.00;100365.10;109002;1254;72699;-55
2024/03/13 01:00:54;;;;;;;15.20;8.30;;;;;;;0.59;100.00;100370.23;108950;1253;61007;-56
2024/03/13 01:03:22;;;;;;;14.10;8.50;;;;;;;0.54;100.00;100366.67;107222;1260;60583;-55
2024/03/13 01:05:50;;;;;;;14.80;8.60;;;;;;;0.50;100.00;100365.44;108818;1255;72591;-57
2024/03/13 01:08:17;;;;;;;18.70;10.20;;;;;;;0.47;100.00;100363.13;109034;1254;66739;-58
2024/03/13 01:10:44;;;;;;;13.40;8.30;;;;;;;0.45;100.00;100366.29;106990;1258;71488;-55
2024/03/13 01:13:11;;;;;;;14.00;7.70;;;;;;;0.45;100.00;100366.11;106006;1256;60735;-55
2024/03/13 01:15:39;;;;;;;15.20;8.50;;;;;;;0.46;100.00;100368.61;105926;1260;60413;-55
2024/03/13 01:18:09;;;;;;;16.70;9.20;;;;;;;0.46;100.00;100366.48;106027;1260;74295;-57
2024/03/13 01:20:37;;;;;;;14.70;8.60;;;;;;;0.45;100.00;100368.95;109114;1253;66818;-56
2024/03/13 01:23:04;;;;;;;15.40;9.50;;;;;;;0.45;100.00;100370.36;108608;1255;71449;-55
2024/03/13 01:25:31;;;;;;;14.30;8.50;;;;;;;0.45;100.00;100369.30;105962;1272;60460;-55
2024/03/13 01:28:00;;;;;;;15.50;8.60;;;;;;;0.48;100.00;100368.26;106448;1257;60510;-55
2024/03/13 01:30:29;;;;;;;16.70;9.10;;;;;;;0.48;100.00;100371.97;107581;1256;71799;-56
2024/03/13 01:32:57;;;;;;;17.20;8.40;;;;;;;0.50;100.00;100367.91;107925;1255;66730;-58
2024/03/13 01:35:26;;;;;;;13.90;9.50;;;;;;;0.50;100.00;100366.15;107306;1254;71807;-55
2024/03/13 01:37:57;;;;;;;11.50;8.20;;;;;;;0.50;100.00;100365.45;106074;1253;60603;-54
2024/03/13 01:54:50;;;;;;;14.70;9.70;;;;;;;0.48;100.00;100362.42;106034;1259;60504;-57
2024/03/13 01:57:28;;;;;;;10.40;7.30;;;;;;;0.37;100.00;100356.58;105895;1267;73827;-55
2024/03/13 02:02:42;;;;;;;11.10;7.10;;;;;;;0.41;100.00;100355.36;105901;1260;71687;-55
2024/03/13 02:05:10;;;;;;;11.90;7.70;;;;;;;0.44;100.00;100356.23;105945;1259;62563;-55
2024/03/13 02:07:37;;;;;;;15.20;7.90;;;;;;;0.45;100.00;100353.59;105925;1254;60505;-56
2024/03/13 02:10:05;;;;;;;16.90;7.00;;;;;;;0.46;100.00;100349.89;106070;1269;72563;-55
2024/03/13 02:12:33;;;;;;;11.00;7.70;;;;;;;0.48;100.00;100349.89;106281;1259;67234;-54
2024/03/13 02:15:00;;;;;;;11.00;8.20;;;;;;;0.49;100.00;100349.90;105804;1259;72735;-54
2024/03/13 02:17:32;;;;;;;14.60;7.90;;;;;;;0.48;100.00;100350.60;105934;1256;60553;-57
2024/03/13 02:20:00;;;;;;;15.70;7.50;;;;;;;0.47;100.00;100350.60;105682;1263;60451;-55
2024/03/13 02:22:27;;;;;;;10.20;8.00;;;;;;;0.45;100.00;100351.65;105908;1260;73828;-55
2024/03/13 02:24:54;;;;;;;13.60;7.90;;;;;;;0.43;100.00;100351.46;106073;1261;67181;-54
2024/03/13 02:27:22;;;;;;;12.90;7.30;;;;;;;0.43;100.00;100354.11;106135;1261;71163;-55
2024/03/13 02:29:51;;;;;;;11.50;7.20;;;;;;;0.43;100.00;100355.52;105983;1273;61943;-54
2024/03/13 02:32:20;;;;;;;13.30;7.80;;;;;;;0.43;100.00;100354.98;106010;1258;59915;-55
2024/03/13 02:34:49;;;;;;;14.50;7.80;;;;;;;0.45;100.00;100357.30;106071;1258;76827;-56
2024/03/13 02:37:17;;;;;;;13.70;7.20;;;;;;;0.48;100.00;100359.26;106239;1259;66167;-53
2024/03/13 02:39:45;;;;;;;13.90;7.80;;;;;;;0.51;100.00;100360.48;106194;1270;72483;-55
2024/03/13 02:42:12;;;;;;;11.70;7.20;;;;;;;0.53;100.00;100354.65;106085;1256;61019;-55
2024/03/13 02:44:44;;;;;;;12.40;7.00;;;;;;;0.52;100.00;100356.59;106022;1256;60520;-54
2024/03/13 02:47:11;;;;;;;10.70;7.30;;;;;;;0.52;100.00;100356.23;106040;1259;72758;-55
2024/03/13 02:49:38;;;;;;;14.70;6.90;;;;;;;0.51;100.00;100358.71;105935;1260;65738;-56
2024/03/13 02:52:06;;;;;;;8.80;6.60;;;;;;;0.52;100.00;100354.48;105966;1260;73192;-54
2024/03/13 02:54:33;;;;;;;11.50;7.20;;;;;;;0.51;100.00;100357.66;106212;1259;61496;-57
2024/03/13 02:57:01;;;;;;;14.60;8.50;;;;;;;0.51;100.00;100357.16;106101;1255;62599;-56
2024/03/13 02:59:28;;;;;;;12.90;7.50;;;;;;;0.49;100.00;100360.14;105946;1256;74397;-55
2024/03/13 03:01:55;;;;;;;16.50;7.70;;;;;;;0.46;100.00;100356.42;106064;1259;66907;-54
2024/03/13 03:04:23;;;;;;;12.80;7.40;;;;;;;0.42;100.00;100357.30;106015;1256;72624;-58
2024/03/13 03:06:50;;;;;;;11.50;6.90;;;;;;;0.40;100.00;100355.70;106007;1257;60526;-54
2024/03/13 03:09:19;;;;;;;12.40;7.90;;;;;;;0.38;100.00;100355.34;106030;1259;60319;-52
2024/03/13 03:11:47;;;;;;;11.20;7.00;;;;;;;0.37;100.00;100356.75;105957;1254;74392;-56
2024/03/13 03:14:15;;;;;;;6.70;5.40;;;;;;;0.37;100.00;100357.45;105984;1253;67251;-56
2024/03/13 03:16:42;;;;;;;9.80;6.50;;;;;;;0.38;100.00;100352.70;106045;1256;72734;-54
2024/03/13 03:19:09;;;;;;;10.20;6.40;;;;;;;0.39;100.00;100349.88;105993;1256;60491;-53
2024/03/13 03:21:37;;;;;;;11.40;7.20;;;;;;;0.43;100.00;100355.00;106207;1254;60524;-53
2024/03/13 03:24:05;;;;;;;10.70;5.70;;;;;;;0.46;100.00;100355.18;106044;1268;73908;-56
2024/03/13 03:26:32;;;;;;;8.70;6.30;;;;;;;0.47;100.00;100353.77;106060;1258;65226;-55
2024/03/13 03:28:59;;;;;;;8.10;6.30;;;;;;;0.51;100.00;100356.25;105956;1261;72974;-54
2024/03/13 03:31:27;;;;;;;10.60;6.30;;;;;;;0.52;100.00;100353.77;106073;1259;60514;-52
2024/03/13 03:33:54;;;;;;;10.70;6.20;;;;;;;0.52;100.00;100356.95;106251;1254;61953;-53
2024/03/13 03:36:21;;;;;;;14.30;6.90;;;;;;;0.50;100.00;100356.44;106023;1262;73889;-53
2024/03/13 03:38:50;;;;;;;12.50;8.40;;;;;;;0.48;100.00;100356.08;106139;1259;68517;-57
2024/03/13 03:41:17;;;;;;;11.70;8.20;;;;;;;0.44;100.00;100357.83;106163;1254;71512;-54
2024/03/13 03:43:45;;;;;;;10.20;7.50;;;;;;;0.41;100.00;100355.54;105979;1261;61340;-54
2024/03/13 03:46:12;;;;;;;15.00;7.60;;;;;;;0.37;100.00;100356.23;106029;1253;60736;-54
2024/03/13 03:48:40;;;;;;;10.50;7.00;;;;;;;0.36;100.00;100354.98;106022;1253;72761;-56
2024/03/13 03:51:08;;;;;;;11.30;6.30;;;;;;;0.35;100.00;100352.68;108933;1253;66728;-57
2024/03/13 03:53:37;;;;;;;9.20;7.00;;;;;;;0.37;100.00;100351.81;109019;1255;71432;-54
2024/03/13 03:56:07;;;;;;;14.10;6.20;;;;;;;0.38;100.00;100350.22;106803;1254;61390;-57
2024/03/13 03:58:34;;;;;;;7.80;6.80;;;;;;;0.40;100.00;100353.06;109042;1255;60038;-54
2024/03/13 04:01:02;;;;;;;9.80;6.40;;;;;;;0.43;100.00;100350.23;108964;1253;72082;-54
2024/03/13 04:03:32;;;;;;;9.30;6.10;;;;;;;0.44;100.00;100348.46;108974;1253;67137;-56
2024/03/13 04:06:00;;;;;;;14.50;5.80;;;;;;;0.47;100.00;100350.06;109041;1254;71512;-56
2024/03/13 04:08:28;;;;;;;10.00;6.40;;;;;;;0.49;100.00;100351.14;109099;1255;60973;-55
2024/03/13 04:10:55;;;;;;;10.10;7.50;;;;;;;0.51;100.00;100347.96;108962;1254;60244;-56
2024/03/13 04:13:23;;;;;;;10.00;6.80;;;;;;;0.52;100.00;100350.06;108987;1253;73957;-54
2024/03/13 04:15:52;;;;;;;12.50;7.50;;;;;;;0.51;100.00;100343.18;109076;1256;66967;-54
2024/03/13 04:18:20;;;;;;;13.00;7.80;;;;;;;0.49;100.00;100339.48;109089;1253;71559;-55
2024/03/13 04:20:47;;;;;;;17.00;9.00;;;;;;;0.47;100.00;100341.06;108927;1253;58815;-55
2024/03/13 04:23:16;;;;;;;11.00;7.80;;;;;;;0.45;100.00;100341.94;105954;1260;60547;-55
2024/03/13 04:25:44;;;;;;;12.80;8.80;;;;;;;0.42;100.00;100344.92;106233;1258;72982;-53
2024/03/13 04:28:11;;;;;;;13.60;8.00;;;;;;;0.38;100.00;100343.70;105945;1253;67076;-55
2024/03/13 04:30:40;;;;;;;19.50;9.50;;;;;;;0.36;100.00;100348.27;106264;1256;71461;-53
2024/03/13 04:33:08;;;;;;;12.50;9.00;;;;;;;0.34;100.00;100349.14;105981;1269;60763;-53
2024/03/13 04:35:36;;;;;;;13.00;8.80;;;;;;;0.35;100.00;100348.97;107053;1260;59310;-55
2024/03/13 04:38:04;;;;;;;19.40;11.00;;;;;;;0.36;100.00;100343.14;106007;1260;73799;-54
2024/03/13 04:40:32;;;;;;;14.60;9.70;;;;;;;0.37;100.00;100344.39;106492;1258;67641;-56
2024/03/13 04:43:00;;;;;;;15.50;9.30;;;;;;;0.38;100.00;100342.10;106042;1258;70587;-53
2024/03/13 04:45:27;;;;;;;15.20;9.90;;;;;;;0.38;100.00;100341.92;106816;1255;60067;-58
2024/03/13 04:47:55;;;;;;;15.00;9.20;;;;;;;0.40;100.00;100344.59;106072;1259;60650;-56
2024/03/13 04:50:22;;;;;;;15.60;10.40;;;;;;;0.43;100.00;100349.33;105944;1261;73925;-55
2024/03/13 04:52:49;;;;;;;17.60;11.00;;;;;;;0.44;100.00;100346.86;106135;1261;66807;-55
2024/03/13 04:55:17;;;;;;;15.50;9.60;;;;;;;0.43;100.00;100347.92;106287;1259;73204;-55
2024/03/13 04:57:44;;;;;;;15.40;10.80;;;;;;;0.44;100.00;100351.29;106146;1260;60928;-55
2024/03/13 05:00:12;;;;;;;18.50;11.00;;;;;;;0.47;100.00;100350.06;109019;1253;60024;-55
2024/03/13 05:02:39;;;;;;;18.20;11.50;;;;;;;0.49;100.00;100350.79;106946;1259;73993;-56
2024/03/13 05:05:12;;;;;;;15.90;11.50;;;;;;;0.51;100.00;100351.30;108883;1253;65663;-57
2024/03/13 05:07:43;;;;;;;16.80;11.80;;;;;;;0.52;100.00;100353.42;107943;1259;72826;-53
2024/03/13 05:10:14;;;;;;;21.40;12.60;;;;;;;0.53;100.00;100355.19;106248;1254;60442;-53
2024/03/13 05:12:43;;;;;;;24.70;14.80;;;;;;;0.52;100.00;100351.82;106085;1257;60492;-55
2024/03/13 05:15:11;;;;;;;21.80;13.70;;;;;;;0.50;100.00;100351.67;106061;1258;73773;-54
2024/03/13 05:17:38;;;;;;;20.10;13.10;;;;;;;0.48;100.00;100353.43;105991;1259;65748;-55
2024/03/13 05:20:11;;;;;;;21.00;12.40;;;;;;;0.46;100.00;100353.41;106110;1269;71622;-54
2024/03/13 05:22:39;;;;;;;20.50;12.40;;;;;;;0.47;100.00;100352.54;105970;1256;60391;-57
2024/03/13 05:25:10;;;;;;;17.40;12.00;;;;;;;0.46;100.00;100350.94;106032;1264;60939;-56
2024/03/13 05:27:38;;;;;;;18.40;11.60;;;;;;;0.47;100.00;100350.59;105981;1253;76031;-56
2024/03/13 05:30:06;;;;;;;23.10;13.60;;;;;;;0.49;100.00;100348.66;106120;1260;66806;-56
2024/03/13 05:32:33;;;;;;;21.40;13.10;;;;;;;0.51;100.00;100350.60;106260;1259;72715;-55
2024/03/13 05:35:01;;;;;;;22.80;13.90;;;;;;;0.53;100.00;100347.41;106030;1254;61263;-57
2024/03/13 05:37:28;;;;;;;20.60;12.80;;;;;;;0.55;100.00;100347.61;106011;1260;60624;-53
2024/03/13 05:39:57;;;;;;;18.50;12.80;;;;;;;0.57;100.00;100349.56;106589;1259;73705;-55
2024/03/13 05:42:24;;;;;;;24.80;14.90;;;;;;;0.57;100.00;100352.91;106469;1256;66737;-54
2024/03/13 05:44:53;;;;;;;22.50;13.90;;;;;;;0.58;100.00;100352.40;106142;1255;72650;-58
2024/03/13 05:47:24;;;;;;;19.60;13.80;;;;;;;0.60;100.00;100354.14;106626;1261;60410;-56
2024/03/13 05:49:51;;;;;;;21.10;14.10;;;;;;;0.63;100.00;100361.03;106041;1253;60531;-55
2024/03/13 05:52:19;;;;;;;20.90;13.10;;;;;;;0.65;100.00;100360.52;106002;1262;72593;-55
2024/03/13 05:54:46;;;;;;;22.40;15.50;;;;;;;0.66;100.00;100364.23;106186;1261;65584;-55
2024/03/13 05:57:13;;;;;;;21.80;15.00;;;;;;;0.66;100.00;100366.00;106218;1260;72766;-56
2024/03/13 05:59:41;;;;;;;21.00;14.30;;;;;;;0.64;100.00;100367.59;105985;1260;60507;-55
2024/03/13 06:02:08;;;;;;;18.90;15.10;;;;;;;0.62;100.00;100367.74;106294;1257;60311;-55
2024/03/13 06:04:36;;;;;;;18.70;14.00;;;;;;;0.60;100.00;100370.23;106034;1260;72779;-57
2024/03/13 06:07:05;;;;;;;20.90;14.20;;;;;;;0.57;100.00;100372.52;106104;1259;65670;-56
2024/03/13 06:09:33;;;;;;;21.90;14.70;;;;;;;0.55;100.00;100371.10;106003;1262;73692;-55
2024/03/13 06:12:00;;;;;;;24.30;13.90;;;;;;;0.55;100.00;100376.92;105998;1269;60464;-56
2024/03/13 06:14:27;;;;;;;19.60;14.10;;;;;;;0.55;100.00;100375.33;106015;1265;61349;-55
2024/03/13 06:16:55;;;;;;;17.90;13.10;;;;;;;0.57;100.00;100376.05;106013;1267;73851;-55
2024/03/13 06:19:22;;;;;;;19.10;14.10;;;;;;;0.58;100.00;100371.64;105972;1260;67709;-56
2024/03/13 06:21:50;;;;;;;21.80;14.50;;;;;;;0.61;100.00;100375.52;108728;1257;71332;-55
2024/03/13 06:24:23;;;;;;;22.60;15.40;;;;;;;0.61;100.00;100378.88;105939;1259;61881;-54
2024/03/13 06:26:50;;;;;;;20.30;14.60;;;;;;;0.61;100.00;100377.10;106094;1260;60452;-55
2024/03/13 06:32:06;;;;;;;21.00;13.40;;;;;;;0.61;100.00;100374.98;105960;1260;65790;-54
2024/03/13 06:34:33;;;;;;;16.90;13.40;;;;;;;0.61;100.00;100378.87;106547;1271;71323;-59
2024/03/13 06:37:04;;;;;;;21.10;14.00;;;;;;;0.62;100.00;100381.88;105983;1261;60933;-55
2024/03/13 06:39:32;;;;;;;21.60;14.40;;;;;;;0.65;100.00;100383.30;107065;1258;60483;-53
2024/03/13 06:42:00;;;;;;;19.10;13.80;;;;;;;0.67;100.00;100384.02;108601;1253;73099;-55
2024/03/13 06:44:27;;;;;;;24.40;15.40;;;;;;;0.68;100.00;100386.66;106015;1256;66470;-56
2024/03/13 06:46:54;;;;;;;21.00;15.10;;;;;;;0.69;100.00;100385.59;106048;1253;72703;-56
2024/03/13 06:49:21;;;;;;;22.30;14.90;;;;;;;0.71;100.00;100386.30;105949;1253;61394;-56
2024/03/13 06:51:49;;;;;;;21.80;15.30;;;;;;;0.71;100.00;100384.19;109054;1253;59966;-56
2024/03/13 06:54:17;;;;;;;23.20;14.20;;;;;;;0.69;100.00;100382.94;108919;1253;73895;-55
2024/03/13 06:56:47;;;;;;;18.30;14.10;;;;;;;0.72;100.00;100383.31;109002;1256;65993;-55
2024/03/13 06:59:17;;;;;;;21.90;15.00;;;;;;;0.76;100.00;100379.08;109097;1253;71876;-55
2024/03/13 07:01:48;;;;;;;22.10;15.30;;;;;;;0.79;100.00;100379.24;108951;1254;59337;-57
2024/03/13 07:04:15;;;;;;;23.90;16.20;;;;;;;0.83;100.00;100375.02;108997;1257;60269;-57
2024/03/13 07:06:43;;;;;;;28.50;18.70;;;;;;;0.85;100.00;100374.31;109069;1253;74665;-55
2024/03/13 07:09:10;;;;;;;25.20;16.60;;;;;;;0.89;100.00;100372.37;107334;1256;67810;-56
2024/03/13 07:11:38;;;;;;;25.40;17.50;;;;;;;0.91;100.00;100364.95;106018;1273;72233;-55
2024/03/13 07:14:06;;;;;;;23.10;15.70;;;;;;;0.93;100.00;100361.60;105996;1269;60520;-57
2024/03/13 07:16:34;;;;;;;21.20;14.50;;;;;;;0.96;100.00;100361.95;108910;1255;58263;-56
2024/03/13 07:19:07;;;;;;;23.20;16.20;;;;;;;1.02;100.00;100363.37;105987;1260;73018;-55
2024/03/13 07:21:35;;;;;;;23.00;15.20;;;;;;;1.10;100.00;100361.25;108919;1254;65665;-56
2024/03/13 07:24:03;;;;;;;21.10;14.70;;;;;;;1.18;100.00;100363.54;108934;1257;154139;-55
2024/03/13 07:27:41;;;;;;;23.50;14.70;;;;;;;1.29;100.00;100365.66;103115;1296;600760;-54
2024/03/13 07:30:09;;;;;;;22.20;14.10;;;;;;;1.33;100.00;100361.93;105609;1274;59820;-54
2024/03/13 07:32:36;;;;;;;26.50;15.80;;;;;;;1.36;100.00;100364.22;105681;1261;59270;-56
2024/03/13 07:35:04;;;;;;;20.90;14.00;;;;;;;1.39;100.00;100364.39;105642;1269;72903;-54
2024/03/13 07:37:31;;;;;;;26.20;16.90;;;;;;;1.39;100.00;100365.46;105708;1274;65854;-54
2024/03/13 07:39:59;;;;;;;21.80;13.10;;;;;;;1.38;100.00;100361.91;105678;1266;71501;-54
2024/03/13 07:42:27;;;;;;;23.10;13.90;;;;;;;1.38;100.00;100368.10;105928;1271;171293;-56
2024/03/13 07:44:54;;;;;;;27.30;14.80;;;;;;;1.38;100.00;100372.34;106014;1264;60405;-54
2024/03/13 07:47:22;;;;;;;20.40;13.30;;;;;;;1.40;100.00;100375.36;105860;1262;70382;-53
2024/03/13 07:49:49;;;;;;;18.10;12.20;;;;;;;1.46;100.00;100379.94;105876;1263;65771;-54
2024/03/13 07:52:17;;;;;;;24.90;14.80;;;;;;;1.52;100.00;100385.60;105855;1257;73535;-53
2024/03/13 07:54:44;;;;;;;22.70;13.70;;;;;;;1.56;100.00;100385.58;105939;1260;59878;-55
2024/03/13 07:57:12;;;;;;;21.10;13.20;;;;;;;1.58;100.00;100382.77;105912;1261;60241;-56
2024/03/13 07:59:40;;;;;;;17.10;11.60;;;;;;;1.61;100.00;100386.13;105764;1275;73251;-54
2024/03/13 08:02:08;;;;;;;21.60;13.10;;;;;;;1.66;100.00;100389.28;106065;1264;65896;-56
2024/03/13 08:04:38;;;;;;;21.60;12.90;;;;;;;1.72;100.00;100392.81;105854;1258;71228;-59
2024/03/13 08:07:06;;;;;;;20.60;13.50;;;;;;;1.73;100.00;100394.58;105924;1257;59733;-57
2024/03/13 08:09:51;;;;;;;19.30;12.20;;;;;;;1.73;100.00;100391.91;105889;1272;59559;-56
2024/03/13 08:12:36;;;;;;;18.40;12.50;;;;;;;1.73;100.00;100389.44;105882;1263;73159;-58
2024/03/13 08:15:21;;;;;;;;;;;;;;;1.69;100.00;100391.77;105812;1263;67032;-55
2024/03/13 08:18:09;;;;;;;17.50;12.00;;;;;;;1.68;100.00;100388.75;105757;1264;72745;-55
2024/03/13 08:20:56;;;;;;;17.80;10.30;;;;;;;1.69;100.00;100392.11;105769;1262;61834;-57
2024/03/13 08:23:44;;;;;;;16.20;10.40;;;;;;;1.73;100.00;100394.92;105794;1260;61399;-56
2024/03/13 08:26:29;;;;;;;12.40;9.20;;;;;;;1.77;100.00;100395.10;106224;1263;74616;-55
2024/03/13 08:29:15;;;;;;;16.20;11.00;;;;;;;1.80;100.00;100397.20;105818;1263;65812;-59
2024/03/13 08:32:00;;;;;;;16.30;10.00;;;;;;;1.82;100.00;100399.33;105826;1263;72728;-55
2024/03/13 08:34:45;;;;;;;18.20;11.60;;;;;;;1.83;100.00;100400.56;105687;1263;59645;-60
2024/03/13 08:37:30;;;;;;;15.70;10.60;;;;;;;1.84;100.00;100403.05;105811;1273;59618;-53
2024/03/13 08:40:16;;;;;;;13.90;10.40;;;;;;;1.82;100.00;100399.68;105757;1267;71843;-54
2024/03/13 08:43:01;;;;;;;17.40;11.60;;;;;;;1.79;100.00;100400.23;105694;1264;66645;-56
2024/03/13 08:45:46;;;;;;;16.30;11.00;;;;;;;1.78;100.00;100399.35;105772;1264;71376;-55
2024/03/13 08:48:31;;;;;;;18.10;9.80;;;;;;;1.80;100.00;100403.39;105834;1264;61099;-55
2024/03/13 08:51:17;;;;;;;;;;;;;;;1.83;100.00;100412.96;105862;1273;59877;-55
2024/03/13 08:54:02;;;;;;;13.20;8.20;;;;;;;1.87;100.00;100412.23;105891;1270;73178;-54
2024/03/13 08:56:47;;;;;;;10.20;7.70;;;;;;;1.89;100.00;100413.81;105808;1261;67118;-58
2024/03/13 08:59:31;;;;;;;10.70;6.50;;;;;;;1.92;100.00;100419.13;105677;1264;70886;-55
2024/03/13 09:02:16;;;;;;;14.00;7.80;;;;;;;1.95;100.00;100417.17;105789;1263;59970;-54
2024/03/13 09:05:03;;;;;;;11.60;6.50;;;;;;;1.95;100.00;100421.96;105802;1257;60578;-55
2024/03/13 09:07:47;;;;;;;13.40;7.70;;;;;;;1.95;100.00;100420.37;105818;1263;71132;-55
2024/03/13 09:10:18;;;;;;;9.70;7.00;;;;;;;1.93;100.00;100423.20;105794;1260;67534;-54
2024/03/13 09:12:46;;;;;;;10.00;7.10;;;;;;;1.93;100.00;100425.68;105765;1273;72713;-56
2024/03/13 09:15:14;;;;;;;11.20;7.30;;;;;;;1.93;100.00;100425.67;105836;1264;61432;-56
2024/03/13 09:17:42;;;;;;;10.20;6.90;;;;;;;1.94;100.00;100426.73;106190;1263;62392;-55
2024/03/13 09:20:13;;;;;;;14.90;7.70;;;;;;;1.94;100.00;100426.02;106186;1260;71869;-55
2024/03/13 09:22:41;;;;;;;11.90;7.20;;;;;;;1.94;100.00;100427.80;105753;1267;67474;-56
2024/03/13 09:25:12;;;;;;;10.60;6.30;;;;;;;1.93;100.00;100424.08;105775;1257;74739;-55
2024/03/13 09:27:39;;;;;;;13.10;7.60;;;;;;;1.94;100.00;100423.02;105763;1260;59770;-56
2024/03/13 09:30:08;;;;;;;11.80;7.40;;;;;;;1.97;100.00;100420.88;105986;1260;60436;-55
2024/03/13 09:32:35;;;;;;;11.40;6.20;;;;;;;2.00;100.00;100422.29;108700;1259;72878;-53
2024/03/13 09:35:04;;;;;;;12.10;7.20;;;;;;;2.05;100.00;100423.34;107559;1260;65965;-53
2024/03/13 09:37:31;;;;;;;12.30;7.40;;;;;;;2.08;100.00;100424.03;108633;1259;74634;-56
2024/03/13 09:39:59;;;;;;;12.40;7.70;;;;;;;2.09;100.00;100430.05;107467;1261;60420;-54
2024/03/13 09:42:30;;;;;;;10.00;6.40;;;;;;;2.12;100.00;100429.88;105783;1269;59829;-59
2024/03/13 09:44:57;;;;;;;16.90;7.50;;;;;;;2.17;100.00;100428.61;105539;1268;73109;-58
2024/03/13 09:47:27;;;;;;;12.80;7.00;;;;;;;2.21;100.00;100427.18;108763;1261;67834;-54
2024/03/13 09:49:55;;;;;;;11.10;7.50;;;;;;;2.30;100.00;100423.77;108595;1260;74634;-57
2024/03/13 09:52:25;;;;;;;14.40;7.50;;;;;;;2.43;100.00;100423.89;108652;1257;58683;-56
2024/03/13 09:54:53;;;;;;;16.40;6.60;;;;;;;2.58;100.00;100421.52;108805;1259;58992;-55
2024/03/13 09:57:20;;;;;;;15.40;8.20;;;;;;;2.74;100.00;100419.11;108916;1257;71912;-55
2024/03/13 09:59:47;;;;;;;12.70;7.20;;;;;;;2.90;100.00;100420.25;108618;1257;65791;-55
2024/03/13 10:02:21;;;;;;;10.80;6.80;;;;;;;3.05;100.00;100423.88;108714;1256;73147;-55
2024/03/13 10:04:49;;;;;;;16.50;7.80;;;;;;;3.16;100.00;100419.53;108798;1260;58788;-55
2024/03/13 10:07:19;;;;;;;12.20;7.10;;;;;;;3.23;100.00;100415.21;108855;1260;59673;-56
2024/03/13 10:09:46;;;;;;;9.90;7.10;;;;;;;3.26;100.00;100415.90;108732;1255;71908;-56
2024/03/13 10:12:17;;;;;;;8.30;5.90;;;;;;;3.29;100.00;100420.14;108724;1257;67101;-56
2024/03/13 10:14:45;;;;;;;12.00;6.50;;;;;;;3.27;100.00;100416.79;108884;1258;72925;-55
2024/03/13 10:17:12;;;;;;;10.90;6.70;;;;;;;3.26;100.00;100422.46;108587;1257;60213;-58
2024/03/13 10:19:44;;;;;;;9.90;6.40;;;;;;;3.24;100.00;100422.48;108261;1260;58689;-55
2024/03/13 10:22:12;;;;;;;12.90;6.30;;;;;;;3.21;100.00;100419.51;105921;1264;71857;-54
2024/03/13 10:24:41;;;;;;;12.80;6.10;;;;;;;3.21;100.00;100413.11;105885;1260;67992;-55
2024/03/13 10:27:11;;;;;;;12.30;5.70;;;;;;;3.22;100.00;100417.02;105801;1261;70828;-55
2024/03/13 10:29:41;;;;;;;10.40;5.50;;;;;;;3.25;100.00;100413.42;105666;1260;59812;-55
2024/03/13 10:32:10;;;;;;;9.20;6.30;;;;;;;3.28;100.00;100416.95;106001;1264;60072;-56
2024/03/13 10:34:37;;;;;;;18.30;6.60;;;;;;;3.31;100.00;100415.88;105667;1267;71873;-55
2024/03/13 10:37:08;;;;;;;10.20;5.50;;;;;;;3.33;100.00;100413.17;105657;1264;68823;-57
2024/03/13 10:39:44;;;;;;;8.70;5.40;;;;;;;3.36;100.00;100412.28;106269;1264;74769;-56
2024/03/13 10:42:11;;;;;;;7.60;5.00;;;;;;;3.35;100.00;100414.94;105795;1260;60916;-56
2024/03/13 10:44:40;;;;;;;10.90;5.90;;;;;;;3.33;100.00;100413.53;106074;1263;59656;-55
2024/03/13 10:47:08;;;;;;;8.10;5.60;;;;;;;3.33;100.00;100408.57;105899;1261;75261;-54
2024/03/13 10:49:36;;;;;;;12.90;5.50;;;;;;;3.33;100.00;100406.61;105810;1260;67417;-54
2024/03/13 10:52:08;;;;;;;10.90;5.70;;;;;;;3.34;100.00;100401.99;105640;1263;70859;-54
2024/03/13 10:54:36;;;;;;;10.50;6.10;;;;;;;3.34;100.00;100402.70;106123;1260;59643;-54
2024/03/13 10:57:04;;;;;;;7.10;5.10;;;;;;;3.37;100.00;100403.76;105855;1263;60674;-55
2024/03/13 10:59:32;;;;;;;8.10;5.60;;;;;;;3.38;100.00;100402.68;105821;1258;73153;-56
2024/03/13 11:02:00;;;;;;;10.20;5.00;;;;;;;3.38;100.00;100400.55;105814;1261;67392;-55
2024/03/13 11:04:27;;;;;;;10.00;4.60;;;;;;;3.39;100.00;100403.73;105540;1267;74771;-55
2024/03/13 11:06:55;;;;;;;9.50;4.20;;;;;;;3.41;100.00;100400.87;105554;1273;59651;-55
2024/03/13 11:09:22;;;;;;;7.50;4.50;;;;;;;3.41;100.00;100400.69;105766;1260;60381;-55
2024/03/13 11:11:51;;;;;;;5.70;3.90;;;;;;;3.40;100.00;100399.48;105744;1261;71550;-55
2024/03/13 11:14:20;;;;;;;5.60;3.30;;;;;;;3.38;100.00;100398.60;105953;1261;65077;-56
2024/03/13 11:16:50;;;;;;;7.10;4.30;;;;;;;3.33;100.00;100398.98;106272;1260;71531;-55
2024/03/13 11:19:17;;;;;;;9.70;5.40;;;;;;;3.29;100.00;100398.33;105889;1264;59642;-56
2024/03/13 11:21:57;;;;;;;8.50;5.30;;;;;;;3.23;100.00;100394.83;105475;1267;60102;-56
2024/03/13 11:24:31;;;;;;;6.40;4.10;;;;;;;3.17;100.00;100399.13;105778;1260;71896;-57
2024/03/13 11:27:17;;;;;;;5.60;4.50;;;;;;;3.12;100.00;100397.58;106788;1260;66545;-57
2024/03/13 11:29:45;;;;;;;10.00;4.90;;;;;;;3.06;100.00;100395.31;106137;1267;74674;-56
2024/03/13 11:32:13;;;;;;;7.10;4.90;;;;;;;3.02;100.00;100398.89;105772;1273;60421;-55
2024/03/13 11:34:44;;;;;;;8.50;4.70;;;;;;;2.98;100.00;100396.96;105675;1261;59564;-55
2024/03/13 11:37:12;;;;;;;9.00;3.40;;;;;;;2.97;100.00;100395.21;105643;1264;73173;-55
2024/03/13 11:39:39;;;;;;;7.40;3.80;;;;;;;2.97;100.00;100393.96;106381;1259;65688;-55